createdAt,value
2018-11-21T00:01:53.972Z,100437.77
2018-11-21T00:04:23.888Z,100437.50
2018-11-21T00:06:53.831Z,100430.63
2018-11-21T00:09:23.886Z,100439.38
2018-11-21T00:11:56.559Z,100441.56
2018-11-21T00:14:26.895Z,100445.96
2018-11-21T00:16:56.690Z,100448.14
2018-11-21T00:19:26.689Z,100457.77
2018-11-21T00:21:56.555Z,100461.25
2018-11-21T00:24:26.542Z,100464.47
2018-11-21T00:26:56.354Z,100462.25
2018-11-21T00:29:26.656Z,100459.77
2018-11-21T00:31:56.680Z,100469.22
2018-11-21T00:34:26.580Z,100471.09
2018-11-21T00:37:08.274Z,100473.66
2018-11-21T00:39:38.734Z,100464.55
2018-11-21T00:42:27.183Z,100464.73
2018-11-21T00:44:57.225Z,100476.61
2018-11-21T00:47:27.249Z,100468.06
2018-11-21T00:49:57.103Z,100478.79
2018-11-21T00:52:26.966Z,100485.45
2018-11-21T00:54:57.170Z,100487.98
2018-11-21T00:57:27.029Z,100490.36
2018-11-21T00:59:56.974Z,100495.27
2018-11-21T01:02:26.999Z,100501.20
2018-11-21T01:04:56.905Z,100499.59
2018-11-21T01:07:26.831Z,100503.14
2018-11-21T01:09:56.861Z,100507.63
2018-11-21T01:12:29.443Z,100509.44
2018-11-21T01:14:59.541Z,100511.62
2018-11-21T01:17:29.785Z,100514.67
2018-11-21T01:19:59.666Z,100513.00
2018-11-21T01:22:29.593Z,100516.48
2018-11-21T01:24:59.448Z,100516.92
2018-11-21T01:27:29.626Z,100527.21
2018-11-21T01:29:59.988Z,100535.87
2018-11-21T01:35:19.947Z,100539.08
2018-11-21T01:37:50.035Z,100529.62
2018-11-21T01:40:19.954Z,100535.71
2018-11-21T01:45:53.603Z,100534.05
2018-11-21T01:48:23.558Z,100540.50
2018-11-21T01:50:53.616Z,100547.50
2018-11-21T01:53:24.503Z,100544.41
2018-11-21T01:55:54.357Z,100556.17
2018-11-21T01:58:24.280Z,100560.69
2018-11-21T02:00:54.452Z,100562.22
2018-11-21T02:03:24.449Z,100569.27
2018-11-21T02:05:54.254Z,100574.20
2018-11-21T02:08:24.129Z,100569.45
2018-11-21T02:10:54.125Z,100564.23
2018-11-21T02:13:43.032Z,100570.61
2018-11-21T02:16:31.853Z,100569.92
2018-11-21T02:19:33.822Z,100580.91
2018-11-21T02:22:03.676Z,100577.06
2018-11-21T02:24:33.839Z,100582.29
2018-11-21T02:27:06.156Z,100582.36
2018-11-21T02:29:36.179Z,100590.16
2018-11-21T02:32:52.926Z,100590.19
2018-11-21T02:36:00.822Z,100597.19
2018-11-21T02:38:31.290Z,100594.14
2018-11-21T02:41:01.330Z,100591.97
2018-11-21T02:43:32.036Z,100598.17
2018-11-21T02:46:02.062Z,100599.00
2018-11-21T02:48:32.312Z,100602.45
2018-11-21T02:51:21.542Z,100600.30
2018-11-21T02:53:51.406Z,100593.89
2018-11-21T02:56:21.755Z,100606.53
2018-11-21T02:58:51.706Z,100603.52
2018-11-21T03:01:21.584Z,100610.02
2018-11-21T03:03:51.485Z,100619.59
2018-11-21T03:06:42.440Z,100622.20
2018-11-21T03:09:12.382Z,100628.28
2018-11-21T03:12:01.355Z,100628.72
2018-11-21T03:14:32.314Z,100636.62
2018-11-21T03:17:21.101Z,100643.98
2018-11-21T03:19:51.448Z,100641.88
2018-11-21T03:22:21.375Z,100634.95
2018-11-21T03:24:51.332Z,100635.81
2018-11-21T03:27:21.530Z,100639.30
2018-11-21T03:29:51.412Z,100646.79
2018-11-21T03:32:21.286Z,100635.92
2018-11-21T03:34:51.294Z,100640.73
2018-11-21T03:37:23.482Z,100650.77
2018-11-21T03:39:53.748Z,100664.22
2018-11-21T03:42:24.384Z,100669.38
2018-11-21T03:44:54.492Z,100681.42
2018-11-21T03:47:24.444Z,100683.69
2018-11-21T03:49:54.459Z,100683.33
2018-11-21T03:52:24.951Z,100690.31
2018-11-21T03:54:55.099Z,100678.20
2018-11-21T03:57:25.113Z,100678.23
2018-11-21T03:59:55.114Z,100683.92
2018-11-21T04:02:25.362Z,100679.23
2018-11-21T04:04:55.456Z,100680.59
2018-11-21T04:07:36.559Z,100674.54
2018-11-21T04:10:10.049Z,100674.60
2018-11-21T04:15:30.454Z,100686.84
2018-11-21T04:18:02.619Z,100688.61
2018-11-21T04:20:33.454Z,100685.91
2018-11-21T04:23:03.519Z,100686.34
2018-11-21T04:25:33.588Z,100690.75
2018-11-21T04:28:04.227Z,100702.12
2018-11-21T04:30:35.347Z,100711.65
2018-11-21T04:36:13.542Z,100729.53
2018-11-21T04:38:43.519Z,100746.55
2018-11-21T04:41:13.407Z,100749.19
2018-11-21T04:44:03.285Z,100741.82
2018-11-21T04:46:38.012Z,100728.44
2018-11-21T04:49:07.974Z,100732.72
2018-11-21T04:51:37.962Z,100735.36
2018-11-21T04:54:08.114Z,100728.89
2018-11-21T04:56:37.997Z,100744.60
2018-11-21T04:59:08.032Z,100744.66
2018-11-21T05:01:38.334Z,100759.45
2018-11-21T05:04:08.294Z,100755.17
2018-11-21T05:06:38.328Z,100750.41
2018-11-21T05:09:11.465Z,100760.44
2018-11-21T05:11:41.496Z,100764.75
2018-11-21T05:14:12.116Z,100766.52
2018-11-21T05:16:41.937Z,100780.02
2018-11-21T05:22:07.804Z,100784.39
2018-11-21T05:24:37.970Z,100787.48
2018-11-21T05:27:08.303Z,100785.36
2018-11-21T05:29:38.318Z,100780.17
2018-11-21T05:32:08.311Z,100778.44
2018-11-21T05:34:39.114Z,100779.77
2018-11-21T05:37:09.653Z,100787.09
2018-11-21T05:39:40.980Z,100783.55
2018-11-21T05:42:11.041Z,100792.61
2018-11-21T05:44:41.545Z,100788.68
2018-11-21T05:47:13.401Z,100790.39
2018-11-21T05:49:43.606Z,100777.73
2018-11-21T05:52:32.410Z,100783.31
2018-11-21T05:55:03.379Z,100784.12
2018-11-21T05:57:33.425Z,100787.25
2018-11-21T06:00:03.484Z,100791.70
2018-11-21T06:02:33.520Z,100802.26
2018-11-21T06:05:03.460Z,100807.55
2018-11-21T06:07:33.399Z,100819.34
2018-11-21T06:10:04.483Z,100825.53
2018-11-21T06:15:30.247Z,100836.52
2018-11-21T06:18:00.452Z,100833.97
2018-11-21T06:20:30.310Z,100827.86
2018-11-21T06:23:00.332Z,100834.38
2018-11-21T06:25:30.323Z,100837.85
2018-11-21T06:28:00.378Z,100837.42
2018-11-21T06:30:30.249Z,100838.77
2018-11-21T06:33:00.653Z,100838.38
2018-11-21T06:35:30.661Z,100835.79
2018-11-21T06:38:19.725Z,100847.95
2018-11-21T06:41:09.954Z,100846.21
2018-11-21T06:43:40.306Z,100851.41
2018-11-21T06:46:10.715Z,100864.92
2018-11-21T06:48:41.258Z,100868.38
2018-11-21T06:51:11.751Z,100868.38
2018-11-21T06:53:42.267Z,100872.30
2018-11-21T06:56:14.465Z,100877.94
2018-11-21T06:58:44.752Z,100882.76
2018-11-21T07:01:47.802Z,100881.00
2018-11-21T07:04:36.688Z,100870.64
2018-11-21T07:07:07.463Z,100870.20
2018-11-21T07:09:37.633Z,100869.34
2018-11-21T07:12:07.522Z,100880.66
2018-11-21T07:14:37.414Z,100885.08
2018-11-21T07:17:07.518Z,100893.75
2018-11-21T07:19:37.551Z,100897.66
2018-11-21T07:22:27.000Z,100906.33
2018-11-21T07:24:57.395Z,100894.61
2018-11-21T07:27:27.717Z,100904.61
2018-11-21T07:29:57.640Z,100922.89
2018-11-21T07:32:31.203Z,100921.59
2018-11-21T07:35:01.073Z,100928.09
2018-11-21T07:37:51.111Z,100932.45
2018-11-21T07:40:22.174Z,100938.02
2018-11-21T07:43:11.586Z,100942.77
2018-11-21T07:45:41.455Z,100932.36
2018-11-21T07:48:20.174Z,100936.23
2018-11-21T07:50:44.242Z,100940.12
2018-11-21T07:53:14.136Z,100940.16
2018-11-21T07:55:44.084Z,100939.69
2018-11-21T07:58:16.305Z,100935.32
2018-11-21T08:01:07.877Z,100948.30
2018-11-21T08:03:42.695Z,100946.55
2018-11-21T08:09:30.858Z,100959.23
2018-11-21T08:12:20.083Z,100968.72
2018-11-21T08:15:08.613Z,100969.15
2018-11-21T08:17:57.120Z,100970.45
2018-11-21T08:20:45.690Z,100972.59
2018-11-21T08:23:34.294Z,100978.75
2018-11-21T08:26:22.767Z,100978.29
2018-11-21T08:28:52.996Z,100984.30
2018-11-21T08:31:22.933Z,100992.08
2018-11-21T08:33:52.998Z,100997.25
2018-11-21T08:36:41.581Z,100991.62
2018-11-21T08:39:22.507Z,100997.20
2018-11-21T08:42:03.615Z,100991.49
2018-11-21T08:44:33.862Z,100994.48
2018-11-21T08:47:04.070Z,101003.12
2018-11-21T08:49:34.127Z,100993.51
2018-11-21T08:52:04.711Z,100989.56
2018-11-21T08:54:34.556Z,101001.67
2018-11-21T08:57:04.512Z,101010.29
2018-11-21T08:59:34.478Z,101003.28
2018-11-21T09:02:24.807Z,101014.11
2018-11-21T09:05:15.696Z,101016.59
2018-11-21T09:07:45.631Z,101031.25
2018-11-21T09:10:16.181Z,101026.84
2018-11-21T09:12:46.184Z,101033.32
2018-11-21T09:15:17.327Z,101026.34
2018-11-21T09:17:47.802Z,101035.45
2018-11-21T09:20:17.744Z,101037.15
2018-11-21T09:23:06.626Z,101041.13
2018-11-21T09:25:36.543Z,101041.20
2018-11-21T09:28:06.473Z,101048.57
2018-11-21T09:30:36.946Z,101048.44
2018-11-21T09:33:07.262Z,101056.20
2018-11-21T09:35:37.465Z,101054.78
2018-11-21T09:38:07.735Z,101049.88
2018-11-21T09:40:38.190Z,101053.22
2018-11-21T09:43:09.203Z,101059.67
2018-11-21T09:45:39.424Z,101073.91
2018-11-21T09:48:09.390Z,101082.98
2018-11-21T09:53:28.164Z,101095.41
2018-11-21T09:56:00.476Z,101095.75
2018-11-21T09:58:31.471Z,101090.91
2018-11-21T10:01:39.260Z,101093.09
2018-11-21T10:04:09.422Z,101090.03
2018-11-21T10:06:41.495Z,101096.56
2018-11-21T10:09:30.136Z,101097.03
2018-11-21T10:12:00.104Z,101094.72
2018-11-21T10:14:32.869Z,101101.54
2018-11-21T10:17:02.716Z,101096.69
2018-11-21T10:19:32.887Z,101101.35
2018-11-21T10:22:16.193Z,101100.37
2018-11-21T10:24:46.330Z,101103.34
2018-11-21T10:27:16.235Z,101089.75
2018-11-21T10:29:46.454Z,101083.16
2018-11-21T10:32:16.482Z,101096.29
2018-11-21T10:34:46.737Z,101092.39
2018-11-21T10:37:16.591Z,101091.55
2018-11-21T10:39:46.543Z,101094.19
2018-11-21T10:42:16.824Z,101085.86
2018-11-21T10:44:46.746Z,101086.67
2018-11-21T10:47:16.774Z,101087.95
2018-11-21T10:49:46.824Z,101077.78
2018-11-21T10:52:16.696Z,101074.18
2018-11-21T10:54:46.606Z,101073.59
2018-11-21T10:57:16.549Z,101090.38
2018-11-21T10:59:46.593Z,101084.04
2018-11-21T11:02:35.067Z,101083.69
2018-11-21T11:05:23.619Z,101087.95
2018-11-21T11:08:12.212Z,101089.06
2018-11-21T11:11:00.912Z,101091.75
2018-11-21T11:13:49.787Z,101095.22
2018-11-21T11:16:38.425Z,101095.77
2018-11-21T11:19:26.991Z,101098.24
2018-11-21T11:22:15.481Z,101102.69
2018-11-21T11:25:04.143Z,101115.67
2018-11-21T11:27:52.710Z,101113.78
2018-11-21T11:30:41.298Z,101103.98
2018-11-21T11:33:44.340Z,101110.23
2018-11-21T11:36:51.900Z,101106.13
2018-11-21T11:39:41.319Z,101113.78
2018-11-21T11:42:29.949Z,101113.16
2018-11-21T11:45:18.477Z,101107.59
2018-11-21T11:48:07.014Z,101104.94
2018-11-21T11:50:45.168Z,101107.41
2018-11-21T11:53:33.792Z,101106.57
2018-11-21T11:56:31.215Z,101111.55
2018-11-21T11:59:19.820Z,101111.24
2018-11-21T12:02:08.577Z,101108.02
2018-11-21T12:04:57.153Z,101120.41
2018-11-21T12:07:48.165Z,101108.89
2018-11-21T12:10:36.986Z,101116.84
2018-11-21T12:13:25.740Z,101119.10
2018-11-21T12:16:26.485Z,101119.92
2018-11-21T12:19:15.373Z,101119.53
2018-11-21T12:22:03.995Z,101115.27
2018-11-21T12:24:52.590Z,101114.72
2018-11-21T12:27:42.326Z,101119.88
2018-11-21T12:30:31.131Z,101122.97
2018-11-21T12:33:20.107Z,101117.94
2018-11-21T12:36:08.986Z,101119.13
2018-11-21T12:38:57.396Z,101115.30
2018-11-21T12:41:46.338Z,101113.75
2018-11-21T12:44:34.030Z,101112.06
2018-11-21T12:47:23.943Z,101114.70
2018-11-21T12:50:12.528Z,101109.59
2018-11-21T12:56:01.115Z,101115.61
2018-11-21T12:58:49.653Z,101105.56
2018-11-21T13:01:38.176Z,101107.85
2018-11-21T13:04:26.651Z,101101.28
2018-11-21T13:07:17.886Z,101105.88
2018-11-21T13:10:25.454Z,101105.77
2018-11-21T13:13:13.957Z,101106.55
2018-11-21T13:16:02.714Z,101100.86
2018-11-21T13:18:51.477Z,101100.81
2018-11-21T13:21:58.914Z,101097.91
2018-11-21T13:24:47.599Z,101107.70
2018-11-21T13:27:36.144Z,101113.16
2018-11-21T13:30:17.298Z,101114.94
2018-11-21T13:36:30.546Z,101114.58
2018-11-21T13:39:19.062Z,101105.78
2018-11-21T13:42:07.504Z,101109.48
2018-11-21T13:48:07.896Z,101117.71
2018-11-21T13:50:56.857Z,101116.13
2018-11-21T13:53:48.023Z,101118.19
2018-11-21T13:56:19.957Z,101125.77
2018-11-21T13:58:53.312Z,101131.56
2018-11-21T14:01:23.199Z,101125.20
2018-11-21T14:04:04.432Z,101121.52
2018-11-21T14:06:37.231Z,101118.10
2018-11-21T14:09:10.699Z,101106.62
2018-11-21T14:11:40.542Z,101108.16
2018-11-21T14:17:00.363Z,101123.28
2018-11-21T14:19:30.400Z,101133.06
2018-11-21T14:22:00.332Z,101130.70
2018-11-21T14:24:31.048Z,101136.95
2018-11-21T14:27:01.612Z,101131.34
2018-11-21T14:29:31.552Z,101126.91
2018-11-21T14:32:01.852Z,101124.33
2018-11-21T14:34:43.131Z,101134.33
2018-11-21T14:37:13.078Z,101138.00
2018-11-21T14:42:30.460Z,101152.97
2018-11-21T14:45:00.591Z,101155.77
2018-11-21T14:47:30.476Z,101161.09
2018-11-21T14:50:01.740Z,101162.81
2018-11-21T14:52:31.844Z,101165.09
2018-11-21T14:55:01.906Z,101162.97
2018-11-21T14:57:32.093Z,101162.03
2018-11-21T15:00:02.239Z,101159.98
2018-11-21T15:02:50.903Z,101171.64
2018-11-21T15:05:20.710Z,101167.87
2018-11-21T15:07:50.670Z,101170.20
2018-11-21T15:13:09.699Z,101172.63
2018-11-21T15:15:39.541Z,101180.11
2018-11-21T15:18:09.592Z,101183.66
2018-11-21T15:20:58.576Z,101188.55
2018-11-21T15:23:28.656Z,101194.70
2018-11-21T15:25:58.696Z,101186.91
2018-11-21T15:28:28.535Z,101191.73
2018-11-21T15:30:58.941Z,101189.20
2018-11-21T15:33:28.854Z,101188.80
2018-11-21T15:35:59.059Z,101191.06
2018-11-21T15:38:40.289Z,101184.23
2018-11-21T15:41:10.425Z,101185.50
2018-11-21T15:43:40.387Z,101194.69
2018-11-21T15:46:50.428Z,101185.64
2018-11-21T15:49:20.644Z,101192.64
2018-11-21T15:51:50.875Z,101193.13
2018-11-21T15:54:20.840Z,101191.47
2018-11-21T16:00:01.797Z,101196.86
2018-11-21T16:02:32.324Z,101200.88
2018-11-21T16:05:02.443Z,101205.72
2018-11-21T16:07:32.754Z,101201.83
2018-11-21T16:10:02.711Z,101207.05
2018-11-21T16:12:32.879Z,101203.59
2018-11-21T16:15:02.997Z,101213.28
2018-11-21T16:17:33.040Z,101215.93
2018-11-21T16:20:05.460Z,101224.23
2018-11-21T16:22:35.511Z,101223.84
2018-11-21T16:25:24.180Z,101216.83
2018-11-21T16:27:54.419Z,101226.94
2018-11-21T16:30:25.788Z,101234.02
2018-11-21T16:32:55.875Z,101234.83
2018-11-21T16:35:25.942Z,101232.67
2018-11-21T16:37:58.344Z,101234.91
2018-11-21T16:40:30.028Z,101237.55
2018-11-21T16:43:01.107Z,101233.28
2018-11-21T16:45:33.227Z,101229.86
2018-11-21T16:48:04.708Z,101237.18
2018-11-21T16:50:34.958Z,101239.88
2018-11-21T16:53:12.277Z,101246.45
2018-11-21T16:55:42.172Z,101248.20
2018-11-21T16:58:12.216Z,101248.23
2018-11-21T17:00:42.985Z,101253.93
2018-11-21T17:03:15.246Z,101250.05
2018-11-21T17:06:04.003Z,101257.03
2018-11-21T17:11:42.525Z,101259.27
2018-11-21T17:14:31.709Z,101262.34
2018-11-21T17:17:21.199Z,101259.77
2018-11-21T17:20:03.325Z,101266.80
2018-11-21T17:22:46.615Z,101260.77
2018-11-21T17:25:19.848Z,101266.03
2018-11-21T17:28:08.705Z,101267.39
2018-11-21T17:30:40.177Z,101273.94
2018-11-21T17:33:10.291Z,101273.92
2018-11-21T17:35:40.724Z,101275.66
2018-11-21T17:38:10.600Z,101274.33
2018-11-21T17:40:42.233Z,101283.45
2018-11-21T17:43:30.766Z,101284.27
2018-11-21T17:46:12.171Z,101282.91
2018-11-21T17:48:42.340Z,101282.02
2018-11-21T17:51:12.525Z,101287.22
2018-11-21T17:53:42.445Z,101281.08
2018-11-21T17:56:12.749Z,101285.41
2018-11-21T17:58:42.722Z,101292.83
2018-11-21T18:01:12.598Z,101294.59
2018-11-21T18:03:42.961Z,101288.89
2018-11-21T18:06:13.198Z,101288.86
2018-11-21T18:08:43.147Z,101292.29
2018-11-21T18:11:13.235Z,101288.81
2018-11-21T18:13:43.214Z,101294.89
2018-11-21T18:16:31.798Z,101297.94
2018-11-21T18:21:44.716Z,101302.73
2018-11-21T18:24:33.927Z,101306.62
2018-11-21T18:27:06.240Z,101307.53
2018-11-21T18:29:36.294Z,101322.30
2018-11-21T18:32:07.508Z,101324.48
2018-11-21T18:34:37.784Z,101323.20
2018-11-21T18:37:26.551Z,101318.02
2018-11-21T18:39:56.523Z,101330.64
2018-11-21T18:42:26.518Z,101326.70
2018-11-21T18:45:36.544Z,101332.37
2018-11-21T18:48:07.117Z,101332.83
2018-11-21T18:50:37.528Z,101333.69
2018-11-21T18:53:46.124Z,101337.17
2018-11-21T18:56:53.790Z,101340.19
2018-11-21T19:00:06.544Z,101339.30
2018-11-21T19:02:36.609Z,101346.18
2018-11-21T19:05:07.775Z,101346.65
2018-11-21T19:07:38.106Z,101348.38
2018-11-21T19:10:11.869Z,101348.80
2018-11-21T19:12:41.838Z,101344.41
2018-11-21T19:15:14.415Z,101341.00
2018-11-21T19:20:51.746Z,101340.82
2018-11-21T19:24:20.846Z,101349.14
2018-11-21T19:27:31.318Z,101350.49
2018-11-21T19:30:40.835Z,101353.06
2018-11-21T19:33:32.594Z,101353.05
2018-11-21T19:36:02.717Z,101356.11
2018-11-21T19:38:32.973Z,101354.78
2018-11-21T19:41:02.990Z,101353.87
2018-11-21T19:43:33.251Z,101349.06
2018-11-21T19:46:03.387Z,101353.78
2018-11-21T19:48:33.510Z,101345.50
2018-11-21T19:51:03.537Z,101351.13
2018-11-21T19:53:33.642Z,101349.84
2018-11-21T19:56:03.500Z,101348.16
2018-11-21T19:58:35.235Z,101348.58
2018-11-21T20:01:05.233Z,101351.64
2018-11-21T20:03:42.725Z,101347.23
2018-11-21T20:06:32.308Z,101348.95
2018-11-21T20:09:03.588Z,101353.16
2018-11-21T20:11:53.669Z,101353.17
2018-11-21T20:14:37.595Z,101354.09
2018-11-21T20:17:26.920Z,101358.47
2018-11-21T20:19:57.122Z,101359.30
2018-11-21T20:22:27.296Z,101357.97
2018-11-21T20:28:04.146Z,101358.36
2018-11-21T20:30:53.785Z,101354.05
2018-11-21T20:33:24.040Z,101362.77
2018-11-21T20:36:13.909Z,101360.98
2018-11-21T20:38:45.559Z,101358.83
2018-11-21T20:41:15.824Z,101354.83
2018-11-21T20:43:46.061Z,101352.59
2018-11-21T20:46:18.612Z,101362.15
2018-11-21T20:51:45.007Z,101358.34
2018-11-21T20:54:15.462Z,101362.21
2018-11-21T20:56:45.661Z,101366.55
2018-11-21T20:59:16.029Z,101359.09
2018-11-21T21:01:46.184Z,101353.52
2018-11-21T21:04:35.321Z,101361.36
2018-11-21T21:07:13.280Z,101363.48
2018-11-21T21:09:43.258Z,101359.58
2018-11-21T21:12:13.823Z,101362.21
2018-11-21T21:14:44.151Z,101359.11
2018-11-21T21:17:33.451Z,101355.13
2018-11-21T21:20:23.682Z,101358.16
2018-11-21T21:22:58.065Z,101359.45
2018-11-21T21:25:29.453Z,101355.59
2018-11-21T21:28:18.633Z,101346.44
2018-11-21T21:30:48.852Z,101349.08
2018-11-21T21:33:18.923Z,101351.70
2018-11-21T21:36:07.755Z,101348.47
2018-11-21T21:38:37.827Z,101349.83
2018-11-21T21:41:07.672Z,101355.73
2018-11-21T21:43:37.934Z,101354.13
2018-11-21T21:46:07.978Z,101355.41
2018-11-21T21:48:37.841Z,101352.37
2018-11-21T21:51:08.044Z,101358.86
2018-11-21T21:53:38.041Z,101358.44
2018-11-21T21:56:08.139Z,101359.70
2018-11-21T21:58:38.105Z,101353.63
2018-11-21T22:01:08.157Z,101359.70
2018-11-21T22:03:38.318Z,101365.31
2018-11-21T22:06:08.864Z,101359.65
2018-11-21T22:08:38.864Z,101367.05
2018-11-21T22:11:08.927Z,101367.50
2018-11-21T22:13:38.958Z,101373.20
2018-11-21T22:16:08.981Z,101372.73
2018-11-21T22:18:57.934Z,101372.73
2018-11-21T22:21:27.902Z,101377.33
2018-11-21T22:23:58.332Z,101374.76
2018-11-21T22:26:28.362Z,101369.58
2018-11-21T22:28:58.579Z,101370.56
2018-11-21T22:31:28.672Z,101369.71
2018-11-21T22:33:59.100Z,101374.04
2018-11-21T22:39:18.098Z,101368.34
2018-11-21T22:41:49.446Z,101369.21
2018-11-21T22:44:19.369Z,101370.55
2018-11-21T22:46:49.376Z,101367.08
2018-11-21T22:49:19.439Z,101367.47
2018-11-21T22:51:49.415Z,101370.02
2018-11-21T22:54:19.433Z,101369.58
2018-11-21T22:56:49.503Z,101368.22
2018-11-21T22:59:19.447Z,101368.64
2018-11-21T23:01:49.370Z,101370.34
2018-11-21T23:04:21.069Z,101372.52
2018-11-21T23:06:50.912Z,101372.02
2018-11-21T23:09:20.900Z,101375.47
2018-11-21T23:12:02.377Z,101373.84
2018-11-21T23:14:32.501Z,101374.73
2018-11-21T23:19:47.765Z,101363.34
2018-11-21T23:22:17.853Z,101361.58
2018-11-21T23:24:47.984Z,101368.98
2018-11-21T23:27:18.096Z,101372.03
2018-11-21T23:30:07.938Z,101365.47
2018-11-21T23:35:20.730Z,101366.23
2018-11-21T23:37:50.693Z,101373.64
2018-11-21T23:40:20.650Z,101364.92
2018-11-21T23:42:51.625Z,101367.55
2018-11-21T23:45:21.711Z,101373.14
2018-11-21T23:47:51.735Z,101370.16
2018-11-21T23:50:21.764Z,101369.67
2018-11-21T23:52:51.643Z,101364.93
2018-11-21T23:55:21.674Z,101364.91
2018-11-21T23:57:52.607Z,101367.52
